createdAt,value
2023-07-16T00:00:09.241Z,0.00
2023-07-16T00:01:09.224Z,0.00
2023-07-16T00:02:09.274Z,0.00
2023-07-16T00:03:09.262Z,0.00
2023-07-16T00:04:09.236Z,0.00
2023-07-16T00:05:09.164Z,0.00
2023-07-16T00:06:09.161Z,0.00
2023-07-16T00:07:09.147Z,0.00
2023-07-16T00:08:09.134Z,0.00
2023-07-16T00:09:09.117Z,0.00
2023-07-16T00:10:09.115Z,0.00
2023-07-16T00:11:09.094Z,0.00
2023-07-16T00:12:09.084Z,0.00
2023-07-16T00:13:09.071Z,0.00
2023-07-16T00:14:09.064Z,4.00
2023-07-16T00:15:09.053Z,4.00
2023-07-16T00:16:09.080Z,4.00
2023-07-16T00:17:09.030Z,4.00
2023-07-16T00:18:09.081Z,4.00
2023-07-16T00:19:09.018Z,4.00
2023-07-16T00:20:08.993Z,4.00
2023-07-16T00:21:08.976Z,4.00
2023-07-16T00:22:08.973Z,0.00
2023-07-16T00:23:09.045Z,0.00
2023-07-16T00:24:08.945Z,0.00
2023-07-16T00:25:08.955Z,0.00
2023-07-16T00:26:08.931Z,0.00
2023-07-16T00:27:08.948Z,0.00
2023-07-16T00:28:08.936Z,0.00
2023-07-16T00:29:08.894Z,0.00
2023-07-16T00:30:08.884Z,0.00
2023-07-16T00:31:08.984Z,0.00
2023-07-16T00:32:08.862Z,0.00
2023-07-16T00:33:08.890Z,0.00
2023-07-16T00:34:08.846Z,0.00
2023-07-16T00:35:08.826Z,0.00
2023-07-16T00:36:08.811Z,0.00
2023-07-16T00:37:08.800Z,0.00
2023-07-16T00:38:08.789Z,0.00
2023-07-16T00:39:08.779Z,0.00
2023-07-16T00:40:08.763Z,0.00
2023-07-16T00:41:08.764Z,0.00
2023-07-16T00:42:08.747Z,0.00
2023-07-16T00:43:08.762Z,0.00
2023-07-16T00:44:08.731Z,0.00
2023-07-16T00:45:08.808Z,0.00
2023-07-16T00:46:08.718Z,0.00
2023-07-16T00:47:08.696Z,0.00
2023-07-16T00:48:08.729Z,0.00
2023-07-16T00:49:08.698Z,0.00
2023-07-16T00:50:08.677Z,0.00
2023-07-16T00:51:08.641Z,0.00
2023-07-16T00:52:08.630Z,0.00
2023-07-16T00:53:08.621Z,0.00
2023-07-16T00:54:08.610Z,0.00
2023-07-16T00:55:08.596Z,0.00
2023-07-16T00:56:08.583Z,0.00
2023-07-16T00:57:08.573Z,0.00
2023-07-16T00:58:08.565Z,0.00
2023-07-16T00:59:08.563Z,0.00
2023-07-16T01:00:08.542Z,0.00
2023-07-16T01:01:08.565Z,0.00
2023-07-16T01:02:08.526Z,0.00
2023-07-16T01:03:08.561Z,0.00
2023-07-16T01:04:08.514Z,0.00
2023-07-16T01:05:08.523Z,0.00
2023-07-16T01:06:08.478Z,0.00
2023-07-16T01:07:08.526Z,0.00
2023-07-16T01:08:08.446Z,0.00
2023-07-16T01:09:08.442Z,0.00
2023-07-16T01:10:08.433Z,0.00
2023-07-16T01:11:08.415Z,0.00
2023-07-16T01:12:08.405Z,0.00
2023-07-16T01:13:08.389Z,0.00
2023-07-16T01:14:08.381Z,0.00
2023-07-16T01:15:08.377Z,0.00
2023-07-16T01:16:08.371Z,0.00
2023-07-16T01:17:08.339Z,0.00
2023-07-16T01:18:08.420Z,0.00
2023-07-16T01:19:08.323Z,0.00
2023-07-16T01:20:08.327Z,0.00
2023-07-16T01:21:08.315Z,0.00
2023-07-16T01:22:09.525Z,0.00
2023-07-16T01:23:08.409Z,0.00
2023-07-16T01:24:08.259Z,0.00
2023-07-16T01:25:08.253Z,0.00
2023-07-16T01:26:08.253Z,0.00
2023-07-16T01:27:08.230Z,0.00
2023-07-16T01:28:08.253Z,0.00
2023-07-16T01:29:08.230Z,0.00
2023-07-16T01:30:08.195Z,0.00
2023-07-16T01:31:08.226Z,0.00
2023-07-16T01:32:08.182Z,0.00
2023-07-16T01:33:08.170Z,0.00
2023-07-16T01:34:08.188Z,0.00
2023-07-16T01:35:08.140Z,0.00
2023-07-16T01:36:08.129Z,0.00
2023-07-16T01:37:08.114Z,0.00
2023-07-16T01:38:08.158Z,0.00
2023-07-16T01:39:08.086Z,0.00
2023-07-16T01:40:08.130Z,0.00
2023-07-16T01:41:08.064Z,0.00
2023-07-16T01:42:08.066Z,0.00
2023-07-16T01:43:08.043Z,0.00
2023-07-16T01:44:08.027Z,0.00
2023-07-16T01:45:08.018Z,0.00
2023-07-16T01:46:08.062Z,0.00
2023-07-16T01:47:07.997Z,0.00
2023-07-16T01:48:08.053Z,0.00
2023-07-16T01:49:07.968Z,0.00
2023-07-16T01:50:07.981Z,0.00
2023-07-16T01:51:07.974Z,0.00
2023-07-16T01:52:07.953Z,0.00
2023-07-16T01:53:07.948Z,0.00
2023-07-16T01:54:07.921Z,0.00
2023-07-16T01:55:07.901Z,0.00
2023-07-16T01:56:07.890Z,0.00
2023-07-16T01:57:07.913Z,0.00
2023-07-16T01:58:07.887Z,0.00
2023-07-16T01:59:07.855Z,0.00
2023-07-16T02:00:07.846Z,0.00
2023-07-16T02:01:07.859Z,0.00
2023-07-16T02:02:07.914Z,0.00
2023-07-16T02:03:07.894Z,0.00
2023-07-16T02:04:07.798Z,0.00
2023-07-16T02:05:07.787Z,0.00
2023-07-16T02:06:07.784Z,0.00
2023-07-16T02:07:07.763Z,0.00
2023-07-16T02:08:07.790Z,0.00
2023-07-16T02:09:07.743Z,0.00
2023-07-16T02:10:07.731Z,0.00
2023-07-16T02:11:07.721Z,0.00
2023-07-16T02:12:07.712Z,0.00
2023-07-16T02:13:07.703Z,0.00
2023-07-16T02:14:07.690Z,0.00
2023-07-16T02:15:07.684Z,0.00
2023-07-16T02:16:07.737Z,0.00
2023-07-16T02:17:07.648Z,0.00
2023-07-16T02:18:07.638Z,0.00
2023-07-16T02:19:07.634Z,0.00
2023-07-16T02:20:07.617Z,0.00
2023-07-16T02:21:07.607Z,0.00
2023-07-16T02:22:07.596Z,0.00
2023-07-16T02:23:07.664Z,0.00
2023-07-16T02:24:07.586Z,0.00
2023-07-16T02:25:07.564Z,0.00
2023-07-16T02:26:07.546Z,0.00
2023-07-16T02:27:07.540Z,0.00
2023-07-16T02:28:07.531Z,0.00
2023-07-16T02:29:07.511Z,0.00
2023-07-16T02:30:07.537Z,0.00
2023-07-16T02:31:07.523Z,0.00
2023-07-16T02:32:07.510Z,0.00
2023-07-16T02:33:07.462Z,0.00
2023-07-16T02:34:07.449Z,0.00
2023-07-16T02:35:07.518Z,0.00
2023-07-16T02:36:07.512Z,0.00
2023-07-16T02:37:07.424Z,0.00
2023-07-16T02:38:07.411Z,0.00
2023-07-16T02:39:07.395Z,0.00
2023-07-16T02:40:07.387Z,0.00
2023-07-16T02:41:07.382Z,0.00
2023-07-16T02:42:07.359Z,0.00
2023-07-16T02:43:07.345Z,0.00
2023-07-16T02:44:07.331Z,0.00
2023-07-16T02:45:07.325Z,0.00
2023-07-16T02:46:07.315Z,0.00
2023-07-16T02:47:07.355Z,0.00
2023-07-16T02:48:07.336Z,0.00
2023-07-16T02:49:07.279Z,0.00
2023-07-16T02:50:07.289Z,0.00
2023-07-16T02:51:07.259Z,0.00
2023-07-16T02:52:07.252Z,0.00
2023-07-16T02:53:07.231Z,0.00
2023-07-16T02:54:07.219Z,0.00
2023-07-16T02:55:07.217Z,0.00
2023-07-16T02:56:07.198Z,0.00
2023-07-16T02:57:07.188Z,0.00
2023-07-16T02:58:07.164Z,0.00
2023-07-16T02:59:07.168Z,0.00
2023-07-16T03:00:07.152Z,0.00
2023-07-16T03:01:07.144Z,0.00
2023-07-16T03:02:16.411Z,0.00
2023-07-16T03:04:13.512Z,0.00
2023-07-16T03:05:13.022Z,0.00
2023-07-16T03:06:12.643Z,0.00
2023-07-16T03:07:13.457Z,0.00
2023-07-16T03:08:13.013Z,0.00
2023-07-16T03:09:12.529Z,4.00
2023-07-16T03:10:12.504Z,4.00
2023-07-16T03:11:12.488Z,4.00
2023-07-16T03:12:12.557Z,0.00
2023-07-16T03:13:12.464Z,4.00
2023-07-16T03:14:12.455Z,4.00
2023-07-16T03:15:12.452Z,4.00
2023-07-16T03:16:12.456Z,8.00
2023-07-16T03:17:12.577Z,4.00
2023-07-16T03:18:12.405Z,4.00
2023-07-16T03:19:12.413Z,8.00
2023-07-16T03:20:12.380Z,8.00
2023-07-16T03:21:12.367Z,8.00
2023-07-16T03:22:12.380Z,8.00
2023-07-16T03:23:12.362Z,8.00
2023-07-16T03:24:12.335Z,16.00
2023-07-16T03:25:12.323Z,16.00
2023-07-16T03:26:12.308Z,16.00
2023-07-16T03:27:18.204Z,20.00
2023-07-16T03:28:12.289Z,20.00
2023-07-16T03:29:12.282Z,24.00
2023-07-16T03:30:12.268Z,28.00
2023-07-16T03:31:12.307Z,32.00
2023-07-16T03:32:12.263Z,32.00
2023-07-16T03:33:12.279Z,36.00
2023-07-16T03:34:12.226Z,40.00
2023-07-16T03:35:12.201Z,44.00
2023-07-16T03:36:12.193Z,44.00
2023-07-16T03:37:12.188Z,52.00
2023-07-16T03:38:12.166Z,52.00
2023-07-16T03:39:12.161Z,60.00
2023-07-16T03:40:12.224Z,64.00
2023-07-16T03:41:12.131Z,68.00
2023-07-16T03:42:12.129Z,72.00
2023-07-16T03:43:12.118Z,76.00
2023-07-16T03:44:12.091Z,80.00
2023-07-16T03:45:12.101Z,84.00
2023-07-16T03:46:12.074Z,92.00
2023-07-16T03:47:12.093Z,100.00
2023-07-16T03:48:12.133Z,104.00
2023-07-16T03:49:12.035Z,112.00
2023-07-16T03:50:12.033Z,116.00
2023-07-16T03:51:12.015Z,124.00
2023-07-16T03:52:11.999Z,128.00
2023-07-16T03:53:12.010Z,132.00
2023-07-16T03:54:11.995Z,140.00
2023-07-16T03:55:11.960Z,144.00
2023-07-16T03:56:11.949Z,148.00
2023-07-16T03:57:11.943Z,152.00
2023-07-16T03:58:11.950Z,160.00
2023-07-16T03:59:11.919Z,168.00
2023-07-16T04:00:11.920Z,168.00
2023-07-16T04:01:11.903Z,176.00
2023-07-16T04:02:11.965Z,184.00
2023-07-16T04:03:11.924Z,196.00
2023-07-16T04:04:11.891Z,204.00
2023-07-16T04:05:11.835Z,208.00
2023-07-16T04:06:11.826Z,212.00
2023-07-16T04:07:11.824Z,220.00
2023-07-16T04:08:11.808Z,228.00
2023-07-16T04:09:11.791Z,236.00
2023-07-16T04:10:11.782Z,244.00
2023-07-16T04:11:11.766Z,248.00
2023-07-16T04:12:11.753Z,252.00
2023-07-16T04:13:11.741Z,260.00
2023-07-16T04:14:11.725Z,268.00
2023-07-16T04:15:11.804Z,276.00
2023-07-16T04:16:12.058Z,284.00
2023-07-16T04:17:11.696Z,308.00
2023-07-16T04:18:11.692Z,332.00
2023-07-16T04:19:11.667Z,356.00
2023-07-16T04:20:11.663Z,364.00
2023-07-16T04:21:11.641Z,368.00
2023-07-16T04:22:11.629Z,388.00
2023-07-16T04:23:12.041Z,408.00
2023-07-16T04:24:13.032Z,444.00
2023-07-16T04:25:11.778Z,476.00
2023-07-16T04:26:11.603Z,508.00
2023-07-16T04:27:11.580Z,528.00
2023-07-16T04:28:11.566Z,532.00
2023-07-16T04:29:11.546Z,524.00
2023-07-16T04:30:11.536Z,516.00
2023-07-16T04:31:11.555Z,508.00
2023-07-16T04:32:11.511Z,504.00
2023-07-16T04:33:11.510Z,500.00
2023-07-16T04:34:11.494Z,500.00
2023-07-16T04:35:11.480Z,496.00
2023-07-16T04:36:11.466Z,484.00
2023-07-16T04:37:11.450Z,476.00
2023-07-16T04:38:11.440Z,476.00
2023-07-16T04:39:11.423Z,496.00
2023-07-16T04:40:11.414Z,520.00
2023-07-16T04:41:11.401Z,544.00
2023-07-16T04:42:11.406Z,568.00
2023-07-16T04:43:11.407Z,596.00
2023-07-16T04:44:11.362Z,616.00
2023-07-16T04:45:11.364Z,636.00
2023-07-16T04:46:11.419Z,644.00
2023-07-16T04:47:11.342Z,656.00
2023-07-16T04:48:11.317Z,676.00
2023-07-16T04:49:11.312Z,700.00
2023-07-16T04:50:11.294Z,744.00
2023-07-16T04:51:11.273Z,800.00
2023-07-16T04:52:11.264Z,836.00
2023-07-16T04:53:11.268Z,836.00
2023-07-16T04:54:11.246Z,840.00
2023-07-16T04:55:11.239Z,832.00
2023-07-16T04:56:11.220Z,724.00
2023-07-16T04:57:11.202Z,872.00
2023-07-16T04:58:11.196Z,852.00
2023-07-16T04:59:11.175Z,776.00
2023-07-16T05:00:11.168Z,856.00
2023-07-16T05:01:11.151Z,696.00
2023-07-16T05:02:11.194Z,656.00
2023-07-16T05:03:11.130Z,680.00
2023-07-16T05:04:11.170Z,648.00
2023-07-16T05:05:11.107Z,692.00
2023-07-16T05:06:11.102Z,792.00
2023-07-16T05:07:11.083Z,772.00
2023-07-16T05:08:11.076Z,764.00
2023-07-16T05:09:11.063Z,936.00
2023-07-16T05:10:11.044Z,732.00
2023-07-16T05:11:11.041Z,748.00
2023-07-16T05:12:11.018Z,932.00
2023-07-16T05:13:11.008Z,900.00
2023-07-16T05:14:10.997Z,892.00
2023-07-16T05:15:10.987Z,896.00
2023-07-16T05:16:11.035Z,748.00
2023-07-16T05:17:11.085Z,948.00
2023-07-16T05:18:10.975Z,964.00
2023-07-16T05:19:10.941Z,976.00
2023-07-16T05:20:10.929Z,984.00
2023-07-16T05:21:10.920Z,980.00
2023-07-16T05:22:10.901Z,972.00
2023-07-16T05:23:10.940Z,960.00
2023-07-16T05:24:10.881Z,984.00
2023-07-16T05:25:10.869Z,1004.00
2023-07-16T05:26:10.853Z,1024.00
2023-07-16T05:27:10.866Z,1036.00
2023-07-16T05:28:10.864Z,1052.00
2023-07-16T05:29:10.955Z,1064.00
2023-07-16T05:30:10.824Z,1088.00
2023-07-16T05:31:10.792Z,1116.00
2023-07-16T05:32:10.851Z,1136.00
2023-07-16T05:33:10.772Z,1160.00
2023-07-16T05:34:10.771Z,1164.00
2023-07-16T05:35:10.755Z,1156.00
2023-07-16T05:36:10.729Z,1172.00
2023-07-16T05:37:10.731Z,1180.00
2023-07-16T05:38:10.709Z,1196.00
2023-07-16T05:39:10.696Z,1212.00
2023-07-16T05:40:10.740Z,1232.00
2023-07-16T05:41:10.705Z,1248.00
2023-07-16T05:42:10.659Z,1256.00
2023-07-16T05:43:10.646Z,1272.00
2023-07-16T05:44:10.646Z,1284.00
2023-07-16T05:45:10.629Z,1296.00
2023-07-16T05:46:10.647Z,1308.00
2023-07-16T05:47:10.610Z,1324.00
2023-07-16T05:48:10.649Z,1340.00
2023-07-16T05:49:10.591Z,1356.00
2023-07-16T05:50:10.583Z,1368.00
2023-07-16T05:51:32.678Z,1380.00
2023-07-16T05:52:10.543Z,1400.00
2023-07-16T05:53:11.069Z,1432.00
2023-07-16T05:54:10.643Z,1452.00
2023-07-16T05:55:10.506Z,1464.00
2023-07-16T05:56:10.517Z,1480.00
2023-07-16T05:57:10.504Z,1504.00
2023-07-16T05:58:10.468Z,1520.00
2023-07-16T05:59:10.475Z,1540.00
2023-07-16T06:00:10.445Z,1560.00
2023-07-16T06:01:11.199Z,1588.00
2023-07-16T06:02:10.432Z,1612.00
2023-07-16T06:03:10.465Z,1648.00
2023-07-16T06:04:10.606Z,1684.00
2023-07-16T06:05:10.392Z,1712.00
2023-07-16T06:06:10.377Z,1744.00
2023-07-16T06:07:10.373Z,1776.00
2023-07-16T06:08:10.357Z,1828.00
2023-07-16T06:09:10.343Z,1840.00
2023-07-16T06:10:10.346Z,1880.00
2023-07-16T06:11:10.356Z,1928.00
2023-07-16T06:12:10.308Z,1984.00
2023-07-16T06:13:10.314Z,2032.00
2023-07-16T06:14:10.286Z,2068.00
2023-07-16T06:15:10.278Z,2132.00
2023-07-16T06:16:10.413Z,2192.00
2023-07-16T06:17:10.260Z,2264.00
2023-07-16T06:18:10.240Z,2344.00
2023-07-16T06:19:10.232Z,2424.00
2023-07-16T06:20:10.229Z,2504.00
2023-07-16T06:21:10.210Z,2604.00
2023-07-16T06:22:10.349Z,2760.00
2023-07-16T06:23:10.273Z,2816.00
2023-07-16T06:24:10.177Z,2904.00
2023-07-16T06:25:10.175Z,2972.00
2023-07-16T06:26:10.156Z,2988.00
2023-07-16T06:27:10.142Z,3088.00
2023-07-16T06:28:10.337Z,3212.00
2023-07-16T06:29:10.212Z,3348.00
2023-07-16T06:30:10.255Z,3448.00
2023-07-16T06:31:10.171Z,3568.00
2023-07-16T06:32:10.086Z,3604.00
2023-07-16T06:33:10.119Z,3760.00
2023-07-16T06:34:10.074Z,4016.00
2023-07-16T06:35:10.065Z,4300.00
2023-07-16T06:36:10.103Z,4212.00
2023-07-16T06:37:11.227Z,3936.00
2023-07-16T06:38:10.288Z,4280.00
2023-07-16T06:39:10.105Z,4268.00
2023-07-16T06:40:10.024Z,4276.00
2023-07-16T06:41:10.006Z,4344.00
2023-07-16T06:42:10.050Z,4428.00
2023-07-16T06:43:09.970Z,4520.00
2023-07-16T06:44:09.969Z,4624.00
2023-07-16T06:45:09.973Z,4688.00
2023-07-16T06:46:09.976Z,4784.00
2023-07-16T06:47:09.945Z,4864.00
2023-07-16T06:48:09.922Z,4908.00
2023-07-16T06:49:09.936Z,5012.00
2023-07-16T06:50:09.916Z,5076.00
2023-07-16T06:51:09.904Z,5248.00
2023-07-16T06:52:10.160Z,5364.00
2023-07-16T06:53:10.187Z,5572.00
2023-07-16T06:54:13.942Z,5712.00
2023-07-16T06:55:09.859Z,5968.00
2023-07-16T06:56:09.907Z,6136.00
2023-07-16T06:57:09.941Z,6264.00
2023-07-16T06:58:09.825Z,6388.00
2023-07-16T06:59:09.816Z,7128.00
2023-07-16T07:00:09.805Z,6708.00
2023-07-16T07:01:09.825Z,1668.00
2023-07-16T07:02:09.786Z,6916.00
2023-07-16T07:03:09.885Z,7084.00
2023-07-16T07:04:09.803Z,7424.00
2023-07-16T07:05:09.786Z,7768.00
2023-07-16T07:06:09.756Z,7800.00
2023-07-16T07:07:09.748Z,8284.00
2023-07-16T07:08:09.744Z,8432.00
2023-07-16T07:09:09.738Z,8356.00
2023-07-16T07:10:09.729Z,8412.00
2023-07-16T07:11:09.790Z,8616.00
2023-07-16T07:12:09.962Z,8628.00
2023-07-16T07:13:09.702Z,8716.00
2023-07-16T07:14:11.937Z,8776.00
2023-07-16T07:15:09.690Z,8944.00
2023-07-16T07:16:09.868Z,9664.00
2023-07-16T07:17:09.689Z,9792.00
2023-07-16T07:18:09.679Z,8372.00
2023-07-16T07:19:09.656Z,9572.00
2023-07-16T07:20:09.656Z,9820.00
2023-07-16T07:21:09.645Z,9900.00
2023-07-16T07:22:09.788Z,10016.00
2023-07-16T07:23:09.679Z,10332.00
2023-07-16T07:24:09.639Z,10284.00
2023-07-16T07:25:09.648Z,10360.00
2023-07-16T07:26:09.631Z,10348.00
2023-07-16T07:27:09.614Z,10640.00
2023-07-16T07:28:09.614Z,10668.00
2023-07-16T07:29:09.606Z,10532.00
2023-07-16T07:30:09.598Z,10740.00
2023-07-16T07:31:09.619Z,11228.00
2023-07-16T07:32:09.595Z,11340.00
2023-07-16T07:33:09.616Z,11040.00
2023-07-16T07:34:09.609Z,11052.00
2023-07-16T07:35:09.582Z,11048.00
2023-07-16T07:36:09.570Z,11224.00
2023-07-16T07:37:09.574Z,11356.00
2023-07-16T07:38:09.564Z,11420.00
2023-07-16T07:39:09.564Z,11612.00
2023-07-16T07:40:09.560Z,11856.00
2023-07-16T07:41:09.552Z,12132.00
2023-07-16T07:42:09.558Z,12196.00
2023-07-16T07:43:09.549Z,12076.00
2023-07-16T07:44:09.554Z,12088.00
2023-07-16T07:45:09.568Z,12056.00
2023-07-16T07:46:09.552Z,12200.00
2023-07-16T07:47:09.615Z,12328.00
2023-07-16T07:48:09.579Z,12456.00
2023-07-16T07:49:09.536Z,12792.00
2023-07-16T07:50:09.538Z,12744.00
2023-07-16T07:51:09.519Z,12692.00
2023-07-16T07:52:09.523Z,12648.00
2023-07-16T07:53:09.514Z,12548.00
2023-07-16T07:54:09.527Z,12608.00
2023-07-16T07:55:09.547Z,12868.00
2023-07-16T07:56:09.550Z,12832.00
2023-07-16T07:57:09.511Z,9952.00
2023-07-16T07:58:09.517Z,12984.00
2023-07-16T07:59:09.579Z,13388.00
2023-07-16T08:00:09.534Z,13328.00
2023-07-16T08:01:09.655Z,13732.00
2023-07-16T08:02:09.516Z,13588.00
2023-07-16T08:03:11.001Z,9460.00
2023-07-16T08:04:09.572Z,13972.00
2023-07-16T08:05:09.675Z,14580.00
2023-07-16T08:06:09.488Z,5512.00
2023-07-16T08:07:09.488Z,3092.00
2023-07-16T08:08:09.480Z,13164.00
2023-07-16T08:09:09.475Z,13932.00
2023-07-16T08:10:09.472Z,14168.00
2023-07-16T08:11:09.475Z,14128.00
2023-07-16T08:12:09.476Z,14324.00
2023-07-16T08:13:09.474Z,14520.00
2023-07-16T08:14:09.482Z,14152.00
2023-07-16T08:15:09.471Z,13556.00
2023-07-16T08:16:09.470Z,15196.00
2023-07-16T08:17:09.484Z,15968.00
2023-07-16T08:18:09.514Z,4888.00
2023-07-16T08:19:09.471Z,4116.00
2023-07-16T08:20:09.458Z,15104.00
2023-07-16T08:21:09.456Z,14656.00
2023-07-16T08:22:09.489Z,3140.00
2023-07-16T08:23:09.507Z,14812.00
2023-07-16T08:24:09.469Z,14672.00
2023-07-16T08:25:09.453Z,3368.00
2023-07-16T08:26:09.489Z,14808.00
2023-07-16T08:27:09.443Z,14700.00
2023-07-16T08:28:09.449Z,14496.00
2023-07-16T08:29:09.453Z,14760.00
2023-07-16T08:30:09.448Z,15408.00
2023-07-16T08:31:09.492Z,15416.00
2023-07-16T08:32:09.446Z,15160.00
2023-07-16T08:33:09.542Z,15036.00
2023-07-16T08:34:09.435Z,15228.00
2023-07-16T08:35:09.436Z,15728.00
2023-07-16T08:36:09.444Z,15576.00
2023-07-16T08:37:09.467Z,14972.00
2023-07-16T08:38:09.542Z,15040.00
2023-07-16T08:39:09.504Z,14988.00
2023-07-16T08:40:09.433Z,15092.00
2023-07-16T08:41:09.543Z,15212.00
2023-07-16T08:42:10.167Z,15140.00
2023-07-16T08:43:09.480Z,15260.00
2023-07-16T08:44:09.429Z,15612.00
2023-07-16T08:45:09.436Z,15720.00
2023-07-16T08:46:09.522Z,15732.00
2023-07-16T08:47:09.763Z,16480.00
2023-07-16T08:48:09.579Z,16608.00
2023-07-16T08:49:09.465Z,17088.00
2023-07-16T08:50:09.823Z,15276.00
2023-07-16T08:51:09.742Z,15272.00
2023-07-16T08:52:09.435Z,13908.00
2023-07-16T08:53:09.443Z,12644.00
2023-07-16T08:54:09.492Z,12968.00
2023-07-16T08:55:09.438Z,13268.00
2023-07-16T08:56:09.438Z,14100.00
2023-07-16T08:57:09.470Z,6100.00
2023-07-16T08:58:09.458Z,4832.00
2023-07-16T08:59:09.442Z,5316.00
2023-07-16T09:00:09.438Z,15284.00
2023-07-16T09:01:09.435Z,13876.00
2023-07-16T09:02:09.489Z,11568.00
2023-07-16T09:03:09.493Z,13772.00
2023-07-16T09:04:09.469Z,9568.00
2023-07-16T09:05:12.113Z,11268.00
2023-07-16T09:06:09.501Z,11052.00
2023-07-16T09:07:09.433Z,8544.00
2023-07-16T09:08:09.438Z,8324.00
2023-07-16T09:09:09.480Z,9212.00
2023-07-16T09:10:09.446Z,12876.00
2023-07-16T09:11:09.435Z,10404.00
2023-07-16T09:12:09.431Z,11860.00
2023-07-16T09:13:09.425Z,10836.00
2023-07-16T09:14:09.426Z,13196.00
2023-07-16T09:15:09.421Z,13432.00
2023-07-16T09:16:09.419Z,17184.00
2023-07-16T09:17:09.437Z,16992.00
2023-07-16T09:18:09.537Z,17472.00
2023-07-16T09:19:09.417Z,18720.00
2023-07-16T09:20:09.438Z,17184.00
2023-07-16T09:21:09.420Z,14996.00
2023-07-16T09:22:09.416Z,14256.00
2023-07-16T09:23:09.436Z,17280.00
2023-07-16T09:24:09.442Z,13416.00
2023-07-16T09:25:09.439Z,16736.00
2023-07-16T09:26:09.428Z,18528.00
2023-07-16T09:27:09.438Z,20416.00
2023-07-16T09:28:09.415Z,20256.00
2023-07-16T09:29:09.425Z,19936.00
2023-07-16T09:30:09.399Z,19840.00
2023-07-16T09:31:09.477Z,19648.00
2023-07-16T09:32:09.532Z,19296.00
2023-07-16T09:33:09.444Z,18464.00
2023-07-16T09:34:09.407Z,19232.00
2023-07-16T09:35:09.427Z,19264.00
2023-07-16T09:36:09.406Z,19328.00
2023-07-16T09:37:09.408Z,19296.00
2023-07-16T09:38:09.400Z,19328.00
2023-07-16T09:39:09.404Z,18848.00
2023-07-16T09:40:09.418Z,18592.00
2023-07-16T09:41:09.418Z,18400.00
2023-07-16T09:42:09.408Z,18432.00
2023-07-16T09:43:09.424Z,17536.00
2023-07-16T09:44:09.667Z,18464.00
2023-07-16T09:45:09.650Z,17888.00
2023-07-16T09:46:09.479Z,17184.00
2023-07-16T09:47:09.420Z,18688.00
2023-07-16T09:48:09.462Z,18560.00
2023-07-16T09:49:09.454Z,18592.00
2023-07-16T09:50:09.431Z,18560.00
2023-07-16T09:51:09.435Z,18624.00
2023-07-16T09:52:09.429Z,18784.00
2023-07-16T09:53:09.450Z,18752.00
2023-07-16T09:54:09.447Z,18816.00
2023-07-16T09:55:09.486Z,19328.00
2023-07-16T09:56:09.447Z,22272.00
2023-07-16T09:57:09.451Z,26208.00
2023-07-16T09:58:09.449Z,28416.00
2023-07-16T09:59:09.458Z,28672.00
2023-07-16T10:00:09.617Z,27808.00
2023-07-16T10:01:09.548Z,28864.00
2023-07-16T10:02:09.466Z,27744.00
2023-07-16T10:03:09.537Z,26880.00
2023-07-16T10:04:09.469Z,27296.00
2023-07-16T10:05:09.469Z,29696.00
2023-07-16T10:06:09.480Z,30752.00
2023-07-16T10:07:09.496Z,29280.00
2023-07-16T10:08:09.480Z,27168.00
2023-07-16T10:09:09.505Z,27552.00
2023-07-16T10:10:09.485Z,28224.00
2023-07-16T10:11:09.490Z,29760.00
2023-07-16T10:12:09.578Z,29664.00
2023-07-16T10:13:09.501Z,7088.00
2023-07-16T10:14:09.503Z,5720.00
2023-07-16T10:15:09.520Z,18464.00
2023-07-16T10:16:09.566Z,29312.00
2023-07-16T10:17:09.507Z,13532.00
2023-07-16T10:18:09.543Z,30976.00
2023-07-16T10:19:09.521Z,30656.00
2023-07-16T10:20:09.515Z,29152.00
2023-07-16T10:21:09.755Z,31136.00
2023-07-16T10:22:09.532Z,5444.00
2023-07-16T10:23:09.675Z,31616.00
2023-07-16T10:24:09.779Z,31776.00
2023-07-16T10:25:09.936Z,30080.00
2023-07-16T10:26:09.536Z,30496.00
2023-07-16T10:27:09.546Z,30496.00
2023-07-16T10:28:09.544Z,31872.00
2023-07-16T10:29:09.668Z,31968.00
2023-07-16T10:30:09.988Z,30784.00
2023-07-16T10:31:10.030Z,32480.00
2023-07-16T10:32:09.559Z,30784.00
2023-07-16T10:33:09.582Z,29344.00
2023-07-16T10:34:09.566Z,32096.00
2023-07-16T10:35:09.565Z,33344.00
2023-07-16T10:36:09.753Z,32064.00
2023-07-16T10:37:09.734Z,29504.00
2023-07-16T10:38:09.585Z,30912.00
2023-07-16T10:39:09.586Z,4556.00
2023-07-16T10:40:09.625Z,24352.00
2023-07-16T10:41:09.597Z,32064.00
2023-07-16T10:42:09.601Z,25408.00
2023-07-16T10:43:09.603Z,3384.00
2023-07-16T10:44:09.603Z,32480.00
2023-07-16T10:45:09.612Z,34240.00
2023-07-16T10:46:09.635Z,11476.00
2023-07-16T10:47:09.613Z,4904.00
2023-07-16T10:48:09.638Z,31328.00
2023-07-16T10:49:09.624Z,6316.00
2023-07-16T10:50:09.627Z,11252.00
2023-07-16T10:51:09.627Z,4044.00
2023-07-16T10:52:09.624Z,3960.00
2023-07-16T10:53:09.627Z,6104.00
2023-07-16T10:54:09.646Z,9824.00
2023-07-16T10:55:09.643Z,33184.00
2023-07-16T10:56:09.627Z,32544.00
2023-07-16T10:57:09.640Z,32320.00
2023-07-16T10:58:09.638Z,30528.00
2023-07-16T10:59:09.678Z,29664.00
2023-07-16T11:00:09.640Z,29920.00
2023-07-16T11:01:09.662Z,30432.00
2023-07-16T11:02:11.521Z,29568.00
2023-07-16T11:03:09.683Z,29184.00
2023-07-16T11:04:09.695Z,29728.00
2023-07-16T11:05:09.649Z,30112.00
2023-07-16T11:06:09.643Z,30272.00
2023-07-16T11:07:09.650Z,28672.00
2023-07-16T11:08:09.681Z,28800.00
2023-07-16T11:09:09.651Z,28288.00
2023-07-16T11:10:09.656Z,28736.00
2023-07-16T11:11:09.656Z,27584.00
2023-07-16T11:12:09.659Z,27168.00
2023-07-16T11:13:09.675Z,28736.00
2023-07-16T11:14:09.670Z,28192.00
2023-07-16T11:15:09.663Z,13596.00
2023-07-16T11:16:09.851Z,28320.00
2023-07-16T11:17:09.685Z,26624.00
2023-07-16T11:18:09.736Z,25824.00
2023-07-16T11:19:09.671Z,25280.00
2023-07-16T11:20:09.683Z,25280.00
2023-07-16T11:21:09.725Z,24320.00
2023-07-16T11:22:09.691Z,23136.00
2023-07-16T11:23:09.778Z,6072.00
2023-07-16T11:24:09.685Z,13616.00
2023-07-16T11:25:09.695Z,15488.00
2023-07-16T11:26:09.701Z,12812.00
2023-07-16T11:27:09.692Z,19392.00
2023-07-16T11:28:09.698Z,11184.00
2023-07-16T11:29:09.727Z,7436.00
2023-07-16T11:30:09.735Z,4380.00
2023-07-16T11:31:09.767Z,4628.00
2023-07-16T11:32:09.725Z,6636.00
2023-07-16T11:33:09.833Z,5524.00
2023-07-16T11:34:09.709Z,4480.00
2023-07-16T11:35:09.717Z,7232.00
2023-07-16T11:36:09.708Z,24864.00
2023-07-16T11:37:09.717Z,25728.00
2023-07-16T11:38:09.723Z,19328.00
2023-07-16T11:39:09.738Z,6136.00
2023-07-16T11:40:09.730Z,27008.00
2023-07-16T11:41:09.726Z,11892.00
2023-07-16T11:42:09.721Z,5904.00
2023-07-16T11:43:10.319Z,5516.00
2023-07-16T11:44:10.317Z,6608.00
2023-07-16T11:45:09.717Z,25344.00
2023-07-16T11:46:09.718Z,5488.00
2023-07-16T11:47:09.736Z,22432.00
2023-07-16T11:48:09.733Z,6456.00
2023-07-16T11:49:09.716Z,20352.00
2023-07-16T11:50:09.722Z,18816.00
2023-07-16T11:51:09.720Z,17632.00
2023-07-16T11:52:09.924Z,16832.00
2023-07-16T11:53:10.029Z,16384.00
2023-07-16T11:54:09.751Z,16576.00
2023-07-16T11:55:09.729Z,16224.00
2023-07-16T11:56:09.726Z,14680.00
2023-07-16T11:57:09.728Z,15196.00
2023-07-16T11:58:09.744Z,14864.00
2023-07-16T11:59:11.379Z,15040.00
2023-07-16T12:00:09.729Z,14936.00
2023-07-16T12:01:09.776Z,14592.00
2023-07-16T12:02:09.734Z,14336.00
2023-07-16T12:03:09.844Z,14288.00
2023-07-16T12:04:09.829Z,14124.00
2023-07-16T12:05:11.127Z,14492.00
2023-07-16T12:06:09.747Z,14872.00
2023-07-16T12:07:09.745Z,14796.00
2023-07-16T12:08:09.749Z,14512.00
2023-07-16T12:09:09.752Z,14496.00
2023-07-16T12:10:09.769Z,14396.00
2023-07-16T12:11:09.750Z,14204.00
2023-07-16T12:12:09.752Z,13880.00
2023-07-16T12:13:09.759Z,13716.00
2023-07-16T12:14:09.764Z,13584.00
2023-07-16T12:15:09.762Z,13404.00
2023-07-16T12:16:09.767Z,13348.00
2023-07-16T12:17:09.805Z,13288.00
2023-07-16T12:18:09.908Z,13060.00
2023-07-16T12:19:09.777Z,12844.00
2023-07-16T12:20:09.764Z,12680.00
2023-07-16T12:21:09.779Z,12480.00